| time (UTC) | temp C | wind direction | speed KPH | gust KPH | rain 1hr cm | rain 24hr cm | rain mn cm | humidity % | barometer mb |
| 20260507122314 | 8 | 282 | 0.0 | 0.0 | 0.00 | 0.00 | 0.00 | 85 | 1018.9 |
| 20260507121314 | 7 | 282 | 0.0 | 0.0 | 0.00 | 0.00 | 0.00 | 86 | 1018.8 |
| 20260507120314 | 7 | 282 | 0.0 | 0.0 | 0.00 | 0.00 | 0.00 | 86 | 1018.7 |
| 20260507115354 | 7 | 282 | 0.0 | 0.0 | 0.00 | 0.00 | 0.00 | 86 | 1018.7 |
| 20260507114313 | 7 | 282 | 0.0 | 0.0 | 0.00 | 0.00 | 0.00 | 86 | 1018.6 |
| 20260507113313 | 7 | 282 | 0.0 | 0.0 | 0.00 | 0.00 | 0.00 | 86 | 1018.6 |
| 20260507112313 | 7 | 282 | 0.0 | 0.0 | 0.00 | 0.00 | 0.00 | 86 | 1018.6 |
| 20260507111313 | 7 | 282 | 0.0 | 0.0 | 0.00 | 0.00 | 0.00 | 85 | 1018.4 |
| 20260507110313 | 7 | 282 | 0.0 | 0.0 | 0.00 | 0.00 | 0.00 | 86 | 1018.3 |
| 20260507105313 | 7 | 282 | 0.0 | 0.0 | 0.00 | 0.00 | 0.00 | 85 | 1018.2 |
| 20260507104313 | 7 | 282 | 0.0 | 0.0 | 0.00 | 0.00 | 0.00 | 84 | 1018.3 |
| 20260507103312 | 7 | 282 | 0.0 | 0.0 | 0.00 | 0.00 | 0.00 | 85 | 1018.0 |
| 20260507102333 | 7 | 282 | 0.0 | 0.0 | 0.00 | 0.00 | 0.00 | 84 | 1018.2 |
| 20260507101332 | 7 | 282 | 0.0 | 0.0 | 0.00 | 0.00 | 0.00 | 83 | 1018.2 |
| 20260507100312 | 7 | 282 | 0.0 | 0.0 | 0.00 | 0.00 | 0.00 | 83 | 1018.2 |
| 20260507095312 | 7 | 282 | 0.0 | 0.0 | 0.00 | 0.00 | 0.00 | 81 | 1018.0 |
| 20260507094312 | 7 | 282 | 0.0 | 0.0 | 0.00 | 0.00 | 0.00 | 81 | 1018.0 |
| 20260507093311 | 7 | 282 | 0.0 | 0.0 | 0.00 | 0.00 | 0.00 | 82 | 1018.0 |
| 20260507092311 | 7 | 282 | 0.0 | 0.0 | 0.00 | 0.00 | 0.00 | 82 | 1017.7 |
| 20260507091312 | 7 | 282 | 0.0 | 0.0 | 0.00 | 0.00 | 0.00 | 81 | 1017.9 |
| 20260507090331 | 7 | 282 | 0.0 | 0.0 | 0.00 | 0.00 | 0.00 | 81 | 1018.1 |
| 20260507085331 | 7 | 282 | 0.0 | 0.0 | 0.00 | 0.00 | 0.00 | 81 | 1018.2 |
| 20260507084311 | 8 | 282 | 0.0 | 0.0 | 0.00 | 0.00 | 0.00 | 80 | 1018.3 |
| 20260507083311 | 8 | 282 | 0.0 | 0.0 | 0.00 | 0.00 | 0.00 | 80 | 1018.6 |
| 20260507082331 | 7 | 282 | 0.0 | 0.0 | 0.00 | 0.00 | 0.00 | 81 | 1018.3 |
| 20260507081311 | 7 | 282 | 0.0 | 0.0 | 0.00 | 0.00 | 0.00 | 81 | 1018.0 |
| 20260507080311 | 8 | 282 | 0.0 | 0.0 | 0.00 | 0.00 | 0.00 | 81 | 1018.2 |
| 20260507075311 | 8 | 282 | 0.0 | 0.0 | 0.00 | 0.00 | 0.00 | 81 | 1018.0 |
| 20260507074310 | 8 | 282 | 0.0 | 0.0 | 0.00 | 0.00 | 0.00 | 80 | 1018.2 |
| 20260507073310 | 8 | 282 | 0.0 | 0.0 | 0.00 | 0.00 | 0.00 | 80 | 1018.2 |
| 20260507072310 | 8 | 282 | 0.0 | 0.0 | 0.00 | 0.00 | 0.00 | 79 | 1018.2 |
| 20260507071310 | 8 | 282 | 0.0 | 0.0 | 0.00 | 0.00 | 0.00 | 78 | 1018.3 |
| 20260507070310 | 8 | 282 | 0.0 | 0.0 | 0.00 | 0.00 | 0.00 | 77 | 1018.4 |
| 20260507065310 | 8 | 282 | 0.0 | 0.0 | 0.00 | 0.00 | 0.00 | 76 | 1018.6 |
| 20260507064309 | 9 | 282 | 0.0 | 0.0 | 0.00 | 0.00 | 0.00 | 75 | 1018.6 |
| 20260507063309 | 10 | 282 | 0.0 | 0.0 | 0.00 | 0.00 | 0.00 | 73 | 1018.7 |
| 20260507062429 | 10 | 282 | 0.0 | 1.6 | 0.00 | 0.00 | 0.00 | 72 | 1018.5 |
| 20260507061329 | 10 | 282 | 0.0 | 1.6 | 0.00 | 0.00 | 0.00 | 70 | 1018.4 |
| 20260507060309 | 10 | 282 | 0.0 | 1.6 | 0.00 | 0.00 | 0.00 | 70 | 1018.3 |
| 20260507055309 | 10 | 282 | 0.0 | 0.0 | 0.00 | 0.00 | 0.00 | 69 | 1018.2 |
| 20260507054309 | 10 | 282 | 0.0 | 0.0 | 0.00 | 0.00 | 0.00 | 67 | 1018.3 |
| 20260507053309 | 11 | 282 | 0.0 | 0.0 | 0.00 | 0.00 | 0.00 | 66 | 1018.3 |
| 20260507052308 | 11 | 282 | 1.6 | 4.8 | 0.00 | 0.00 | 0.00 | 64 | 1018.2 |
| 20260507051308 | 11 | 316 | 3.2 | 4.8 | 0.00 | 0.00 | 0.00 | 62 | 1018.2 |
| 20260507050308 | 12 | 9 | 0.0 | 0.0 | 0.00 | 0.00 | 0.00 | 61 | 1018.1 |
| 20260507045308 | 12 | 355 | 3.2 | 4.8 | 0.00 | 0.00 | 0.00 | 60 | 1017.9 |
| 20260507044308 | 12 | 360 | 1.6 | 4.8 | 0.00 | 0.00 | 0.00 | 61 | 1018.0 |
| 20260507043308 | 12 | 22 | 1.6 | 4.8 | 0.00 | 0.00 | 0.00 | 60 | 1018.0 |
| 20260507042307 | 12 | 15 | 4.8 | 4.8 | 0.00 | 0.00 | 0.00 | 61 | 1018.1 |
| 20260507041307 | 12 | 21 | 3.2 | 4.8 | 0.00 | 0.00 | 0.00 | 61 | 1017.9 |
| 20260507040307 | 12 | 13 | 0.0 | 4.8 | 0.00 | 0.00 | 0.00 | 62 | 1018.0 |
| 20260507035307 | 12 | 5 | 3.2 | 4.8 | 0.00 | 0.00 | 0.00 | 62 | 1018.1 |
| 20260507034327 | 12 | 14 | 4.8 | 4.8 | 0.00 | 0.00 | 0.00 | 63 | 1018.0 |
| 20260507033327 | 12 | 28 | 1.6 | 3.2 | 0.00 | 0.00 | 0.00 | 63 | 1018.0 |
| 20260507032327 | 12 | 32 | 1.6 | 4.8 | 0.00 | 0.00 | 0.00 | 62 | 1017.9 |
| 20260507031307 | 12 | 22 | 1.6 | 4.8 | 0.00 | 0.00 | 0.00 | 62 | 1017.7 |
| 20260507030306 | 12 | 355 | 0.0 | 4.8 | 0.00 | 0.00 | 0.00 | 62 | 1017.7 |
| 20260507025307 | 12 | 9 | 1.6 | 6.4 | 0.00 | 0.00 | 0.00 | 62 | 1017.6 |
| 20260507024306 | 12 | 11 | 0.0 | 6.4 | 0.00 | 0.00 | 0.00 | 61 | 1017.5 |
| 20260507023306 | 13 | 26 | 1.6 | 3.2 | 0.00 | 0.00 | 0.00 | 60 | 1017.5 |
| 20260507022306 | 13 | 72 | 0.0 | 4.8 | 0.00 | 0.00 | 0.00 | 60 | 1017.4 |
| 20260507021306 | 13 | 325 | 0.0 | 4.8 | 0.00 | 0.00 | 0.00 | 59 | 1017.3 |
| 20260507020306 | 13 | 323 | 0.0 | 1.6 | 0.00 | 0.00 | 0.00 | 59 | 1017.3 |
| 20260507015306 | 13 | 5 | 3.2 | 4.8 | 0.00 | 0.00 | 0.00 | 58 | 1017.0 |
| 20260507014306 | 14 | 360 | 0.0 | 3.2 | 0.00 | 0.00 | 0.00 | 57 | 1017.0 |
| 20260507013305 | 14 | 5 | 3.2 | 3.2 | 0.00 | 0.00 | 0.00 | 56 | 1016.8 |
| 20260507012306 | 15 | 11 | 0.0 | 4.8 | 0.00 | 0.00 | 0.00 | 55 | 1016.8 |
| 20260507011305 | 15 | 340 | 1.6 | 4.8 | 0.00 | 0.00 | 0.00 | 54 | 1016.7 |
| 20260507010305 | 15 | 355 | 3.2 | 4.8 | 0.00 | 0.00 | 0.00 | 53 | 1016.6 |
| 20260507005306 | 15 | 24 | 4.8 | 6.4 | 0.00 | 0.00 | 0.00 | 52 | 1016.5 |
| 20260507004305 | 16 | 53 | 3.2 | 6.4 | 0.00 | 0.00 | 0.00 | 51 | 1016.2 |
| 20260507003325 | 16 | 22 | 0.0 | 4.8 | 0.00 | 0.00 | 0.00 | 50 | 1016.2 |
| 20260507002306 | 16 | 40 | 1.6 | 11.3 | 0.00 | 0.00 | 0.00 | 50 | 1016.1 |
| 20260507001304 | 16 | 9 | 3.2 | 11.3 | 0.00 | 0.00 | 0.00 | 48 | 1016.1 |
| 20260507000306 | 16 | 51 | 0.0 | 4.8 | 0.00 | 0.00 | 0.00 | 48 | 1015.9 |
| 20260506235306 | 17 | 5 | 4.8 | 16.1 | 0.00 | 0.00 | 0.00 | 46 | 1016.0 |
| 20260506234304 | 17 | 15 | 3.2 | 11.3 | 0.00 | 0.00 | 0.00 | 47 | 1015.8 |
| 20260506233304 | 17 | 39 | 3.2 | 4.8 | 0.00 | 0.00 | 0.00 | 47 | 1015.8 |
| 20260506232306 | 17 | 23 | 6.4 | 12.9 | 0.00 | 0.00 | 0.00 | 45 | 1015.9 |
| 20260506231303 | 17 | 32 | 4.8 | 12.9 | 0.00 | 0.00 | 0.00 | 47 | 1015.6 |
| 20260506230303 | 17 | 36 | 4.8 | 9.7 | 0.00 | 0.00 | 0.00 | 47 | 1015.5 |
| 20260506225305 | 17 | 61 | 4.8 | 16.1 | 0.00 | 0.00 | 0.00 | 47 | 1015.5 |
| 20260506224323 | 17 | 49 | 3.2 | 16.1 | 0.00 | 0.00 | 0.00 | 50 | 1015.3 |
| 20260506223303 | 17 | 355 | 4.8 | 8.0 | 0.00 | 0.00 | 0.00 | 48 | 1015.4 |
| 20260506222323 | 17 | 79 | 12.9 | 16.1 | 0.00 | 0.00 | 0.00 | 52 | 1015.3 |
| 20260506221323 | 17 | 342 | 4.8 | 14.5 | 0.00 | 0.00 | 0.00 | 49 | 1015.2 |
| 20260506220303 | 17 | 331 | 4.8 | 14.5 | 0.00 | 0.00 | 0.00 | 49 | 1015.2 |
| 20260506215305 | 16 | 44 | 12.9 | 19.3 | 0.00 | 0.00 | 0.00 | 49 | 1015.0 |
| 20260506214302 | 17 | 108 | 4.8 | 19.3 | 0.00 | 0.00 | 0.00 | 49 | 1015.1 |
| 20260506213302 | 16 | 57 | 4.8 | 4.8 | 0.00 | 0.00 | 0.00 | 53 | 1015.3 |
| 20260506212305 | 17 | 360 | 6.4 | 16.1 | 0.00 | 0.00 | 0.00 | 50 | 1015.2 |
| 20260506211302 | 17 | 55 | 0.0 | 14.5 | 0.00 | 0.00 | 0.00 | 50 | 1015.2 |
| 20260506210342 | 17 | 303 | 4.8 | 12.9 | 0.00 | 0.00 | 0.00 | 50 | 1015.3 |
| 20260506205305 | 17 | 29 | 6.4 | 12.9 | 0.00 | 0.00 | 0.00 | 49 | 1015.5 |
| 20260506204301 | 17 | 30 | 1.6 | 9.7 | 0.00 | 0.00 | 0.00 | 52 | 1015.4 |
| 20260506203301 | 17 | 32 | 3.2 | 9.7 | 0.00 | 0.00 | 0.00 | 51 | 1015.7 |
| 20260506202301 | 17 | 30 | 4.8 | 16.1 | 0.00 | 0.00 | 0.00 | 55 | 1015.8 |
| 20260506201301 | 17 | 71 | 4.8 | 12.9 | 0.00 | 0.00 | 0.00 | 51 | 1016.1 |
| 20260506200321 | 17 | 346 | 1.6 | 6.4 | 0.00 | 0.00 | 0.00 | 52 | 1016.3 |
| 20260506195321 | 17 | 345 | 3.2 | 16.1 | 0.00 | 0.00 | 0.00 | 51 | 1016.0 |
| 20260506194301 | 17 | 41 | 1.6 | 16.1 | 0.00 | 0.00 | 0.00 | 51 | 1015.8 |
| 20260506193300 | 17 | 51 | 4.8 | 16.1 | 0.00 | 0.00 | 0.00 | 54 | 1016.1 |
| 20260506192300 | 16 | 342 | 8.0 | 17.7 | 0.00 | 0.00 | 0.00 | 53 | 1016.4 |
| 20260506191320 | 16 | 40 | 3.2 | 17.7 | 0.00 | 0.00 | 0.00 | 54 | 1016.4 |
| 20260506190300 | 16 | 94 | 4.8 | 11.3 | 0.00 | 0.00 | 0.00 | 56 | 1016.7 |
| 20260506185300 | 16 | 187 | 1.6 | 17.7 | 0.00 | 0.00 | 0.00 | 56 | 1016.7 |
| 20260506184300 | 16 | 67 | 3.2 | 14.5 | 0.00 | 0.00 | 0.00 | 54 | 1016.6 |
| 20260506183320 | 16 | 114 | 3.2 | 6.4 | 0.00 | 0.00 | 0.00 | 53 | 1016.8 |
| 20260506182300 | 16 | 223 | 4.8 | 14.5 | 0.00 | 0.00 | 0.00 | 54 | 1016.9 |
| 20260506181259 | 16 | 77 | 9.7 | 12.9 | 0.00 | 0.00 | 0.00 | 55 | 1017.0 |
| 20260506180319 | 16 | 349 | 6.4 | 9.7 | 0.00 | 0.00 | 0.00 | 57 | 1017.1 |
| 20260506175259 | 16 | 321 | 11.3 | 16.1 | 0.00 | 0.00 | 0.00 | 57 | 1017.1 |
| 20260506174259 | 16 | 5 | 11.3 | 16.1 | 0.00 | 0.00 | 0.00 | 56 | 1017.2 |
| 20260506173259 | 16 | 71 | 4.8 | 12.9 | 0.00 | 0.00 | 0.00 | 56 | 1017.5 |
| 20260506172259 | 16 | 53 | 4.8 | 16.1 | 0.00 | 0.00 | 0.00 | 58 | 1017.8 |
| 20260506171319 | 16 | 5 | 6.4 | 14.5 | 0.00 | 0.00 | 0.00 | 55 | 1018.0 |
| 20260506170258 | 15 | 68 | 3.2 | 12.9 | 0.00 | 0.00 | 0.00 | 57 | 1018.2 |
| 20260506165258 | 14 | 66 | 4.8 | 14.5 | 0.00 | 0.00 | 0.00 | 60 | 1018.4 |
| 20260506164258 | 14 | 88 | 4.8 | 14.5 | 0.00 | 0.00 | 0.00 | 62 | 1018.3 |
| 20260506163258 | 14 | 61 | 12.9 | 12.9 | 0.00 | 0.00 | 0.00 | 60 | 1018.0 |
| 20260506162258 | 14 | 275 | 0.0 | 12.9 | 0.00 | 0.00 | 0.00 | 63 | 1018.1 |
| 20260506161258 | 13 | 35 | 3.2 | 12.9 | 0.00 | 0.00 | 0.00 | 62 | 1018.1 |
| 20260506160258 | 13 | 49 | 4.8 | 6.4 | 0.00 | 0.00 | 0.00 | 63 | 1018.1 |
| 20260506155338 | 13 | 336 | 4.8 | 14.5 | 0.00 | 0.00 | 0.00 | 63 | 1017.8 |
| 20260506154257 | 13 | 17 | 4.8 | 14.5 | 0.00 | 0.00 | 0.00 | 63 | 1017.5 |
| 20260506153257 | 12 | 37 | 3.2 | 6.4 | 0.00 | 0.00 | 0.00 | 64 | 1017.3 |
| 20260506152257 | 12 | 94 | 4.8 | 16.1 | 0.00 | 0.00 | 0.00 | 62 | 1016.7 |
| 20260506151257 | 12 | 11 | 11.3 | 16.1 | 0.00 | 0.00 | 0.00 | 64 | 1016.4 |
| 20260506150304 | 12 | 65 | 4.8 | 12.9 | 0.00 | 0.00 | 0.00 | 64 | 1016.3 |
| 20260506145257 | 11 | 65 | 4.8 | 16.1 | 0.00 | 0.00 | 0.00 | 65 | 1016.5 |
| 20260506144257 | 11 | 12 | 6.4 | 16.1 | 0.00 | 0.00 | 0.00 | 66 | 1016.5 |
| 20260506143336 | 11 | 48 | 16.1 | 16.1 | 0.00 | 0.00 | 0.00 | 67 | 1016.7 |
| 20260506142256 | 11 | 71 | 4.8 | 20.9 | 0.00 | 0.00 | 0.00 | 68 | 1016.3 |
| 20260506141256 | 10 | 36 | 4.8 | 19.3 | 0.00 | 0.00 | 0.00 | 70 | 1016.5 |
| 20260506140256 | 10 | 55 | 9.7 | 11.3 | 0.00 | 0.00 | 0.00 | 72 | 1016.5 |
| 20260506135316 | 10 | 333 | 1.6 | 22.5 | 0.00 | 0.00 | 0.00 | 73 | 1016.4 |
| 20260506134256 | 10 | 35 | 4.8 | 16.1 | 0.00 | 0.00 | 0.00 | 74 | 1016.6 |
| 20260506133256 | 10 | 77 | 6.4 | 11.3 | 0.00 | 0.00 | 0.00 | 75 | 1016.7 |
| 20260506132256 | 10 | 340 | 4.8 | 14.5 | 0.00 | 0.00 | 0.00 | 76 | 1016.5 |
| 20260506131255 | 10 | 14 | 1.6 | 14.5 | 0.00 | 0.00 | 0.00 | 77 | 1016.7 |
| 20260506130255 | 10 | 11 | 6.4 | 12.9 | 0.00 | 0.00 | 0.00 | 77 | 1016.4 |
| 20260506125255 | 9 | 19 | 4.8 | 16.1 | 0.00 | 0.00 | 0.00 | 77 | 1016.3 |
| 20260506124255 | 9 | 83 | 1.6 | 14.5 | 0.00 | 0.00 | 0.00 | 77 | 1016.1 |
| 20260506123255 | 9 | 355 | 3.2 | 8.0 | 0.00 | 0.00 | 0.00 | 79 | 1016.2 |